Time;durP1;ratioP1;P1;durP2;ratioP2;P2;SDS_P1;SDS_P2;PMS_P1;PMS_P2;Temp;Humidity;BMP_temperature;BMP_pressure;BME280_temperature;BME280_humidity;BME280_pressure;Samples;Min_cycle;Max_cycle;Signal;HPM_P1;HPM_P2
2022/04/24 00:01:50;;;;;;;8.63;5.05;;;;;;;;;;5108634;27;20151;-65
2022/04/24 00:04:17;;;;;;;9.10;5.47;;;;;;;;;;5108176;27;20101;-65
2022/04/24 00:06:46;;;;;;;8.85;5.63;;;;;;;;;;5108188;27;20078;-65
2022/04/24 00:09:16;;;;;;;10.35;5.60;;;;;;;;;;5108306;27;20079;-65
2022/04/24 00:11:43;;;;;;;9.85;5.47;;;;;;;;;;5108396;27;20095;-65
2022/04/24 00:14:10;;;;;;;7.68;4.82;;;;;;;;;;5108139;27;20052;-65
2022/04/24 00:16:37;;;;;;;10.70;5.83;;;;;;;;;;5109017;27;20067;-65
2022/04/24 00:19:04;;;;;;;8.18;5.30;;;;;;;;;;5107925;27;20102;-65
2022/04/24 00:21:30;;;;;;;8.15;5.57;;;;;;;;;;5108182;27;20087;-65
2022/04/24 00:23:57;;;;;;;11.38;5.68;;;;;;;;;;5107339;28;20147;-65
2022/04/24 00:26:23;;;;;;;11.32;5.78;;;;;;;;;;5108582;27;20091;-65
2022/04/24 00:28:50;;;;;;;9.95;5.43;;;;;;;;;;5107821;27;20080;-65
2022/04/24 00:31:16;;;;;;;9.02;5.80;;;;;;;;;;5107863;27;20163;-65
2022/04/24 00:33:43;;;;;;;9.63;6.20;;;;;;;;;;5108134;27;20538;-65
2022/04/24 00:36:09;;;;;;;10.02;6.00;;;;;;;;;;5108767;27;20083;-65
2022/04/24 00:38:35;;;;;;;10.63;6.50;;;;;;;;;;5108431;27;20051;-65
2022/04/24 00:41:02;;;;;;;10.00;6.43;;;;;;;;;;5107973;27;20080;-65
2022/04/24 00:43:29;;;;;;;11.45;6.90;;;;;;;;;;5107587;27;20518;-65
2022/04/24 00:46:10;;;;;;;10.27;6.40;;;;;;;;;;5107941;27;20732;-65
2022/04/24 00:48:37;;;;;;;9.48;6.00;;;;;;;;;;5108064;27;20562;-65
2022/04/24 00:51:10;;;;;;;9.40;6.82;;;;;;;;;;5107975;27;20052;-65
2022/04/24 00:53:36;;;;;;;11.00;6.55;;;;;;;;;;5107470;27;20109;-65
2022/04/24 00:56:03;;;;;;;10.00;6.43;;;;;;;;;;5107907;27;20052;-65
2022/04/24 00:58:30;;;;;;;11.38;7.15;;;;;;;;;;5108629;27;20580;-65
2022/04/24 01:00:56;;;;;;;13.63;7.13;;;;;;;;;;5107334;27;20075;-65
2022/04/24 01:03:23;;;;;;;10.75;6.88;;;;;;;;;;5108462;27;20091;-65
2022/04/24 01:05:50;;;;;;;12.55;6.95;;;;;;;;;;5108871;27;20047;-65
2022/04/24 01:08:16;;;;;;;12.80;7.28;;;;;;;;;;5111840;27;20567;-65
2022/04/24 01:10:43;;;;;;;10.27;6.43;;;;;;;;;;5111442;27;20088;-65
2022/04/24 01:13:10;;;;;;;12.75;7.70;;;;;;;;;;5111073;27;20075;-65
2022/04/24 01:15:36;;;;;;;12.45;7.78;;;;;;;;;;5111252;27;20074;-65
2022/04/24 01:18:03;;;;;;;11.05;7.50;;;;;;;;;;5110179;27;20060;-65
2022/04/24 01:20:29;;;;;;;12.30;7.85;;;;;;;;;;5110077;28;20575;-65
2022/04/24 01:22:55;;;;;;;14.40;8.32;;;;;;;;;;5111478;27;20080;-65
2022/04/24 01:25:22;;;;;;;12.88;8.45;;;;;;;;;;5111385;27;20127;-65
2022/04/24 01:27:48;;;;;;;13.68;8.35;;;;;;;;;;5110534;27;20609;-65
2022/04/24 01:30:14;;;;;;;16.48;8.48;;;;;;;;;;5110944;27;20143;-65
2022/04/24 01:32:40;;;;;;;11.55;8.05;;;;;;;;;;5110526;27;20105;-65
2022/04/24 01:35:07;;;;;;;13.63;8.70;;;;;;;;;;5111242;27;20056;-65
2022/04/24 01:37:34;;;;;;;11.80;8.30;;;;;;;;;;5111398;27;20060;-65
2022/04/24 01:40:00;;;;;;;12.57;8.30;;;;;;;;;;5111269;27;20127;-66
2022/04/24 01:42:27;;;;;;;12.82;8.70;;;;;;;;;;5110736;27;20484;-65
2022/04/24 01:44:53;;;;;;;14.43;8.85;;;;;;;;;;5110752;27;20510;-65
2022/04/24 01:47:19;;;;;;;16.27;8.63;;;;;;;;;;5110422;27;20148;-65
2022/04/24 01:49:45;;;;;;;14.02;8.68;;;;;;;;;;5110661;27;20127;-65
2022/04/24 01:52:12;;;;;;;14.88;8.38;;;;;;;;;;5110728;27;20154;-65
2022/04/24 01:54:38;;;;;;;19.17;8.57;;;;;;;;;;5110358;27;20134;-65
2022/04/24 01:57:05;;;;;;;12.25;8.05;;;;;;;;;;5110513;27;20522;-65
2022/04/24 01:59:31;;;;;;;12.85;8.63;;;;;;;;;;5110555;27;20075;-65
2022/04/24 02:01:58;;;;;;;15.15;8.50;;;;;;;;;;5110780;27;20557;-65
2022/04/24 02:04:26;;;;;;;16.50;9.40;;;;;;;;;;5110533;27;20044;-65
2022/04/24 02:06:52;;;;;;;16.17;8.57;;;;;;;;;;5109810;27;20056;-65
2022/04/24 02:09:18;;;;;;;14.38;9.32;;;;;;;;;;5110388;27;20109;-65
2022/04/24 02:11:44;;;;;;;14.98;8.82;;;;;;;;;;5110445;27;20544;-65
2022/04/24 02:14:17;;;;;;;15.00;8.35;;;;;;;;;;5110637;27;20128;-65
2022/04/24 02:16:44;;;;;;;15.02;8.85;;;;;;;;;;5108883;27;20052;-65
2022/04/24 02:19:10;;;;;;;12.50;8.35;;;;;;;;;;5110117;27;20135;-65
2022/04/24 02:21:36;;;;;;;12.02;7.97;;;;;;;;;;5110075;27;20500;-65
2022/04/24 02:24:03;;;;;;;14.88;9.25;;;;;;;;;;5109702;27;20088;-65
2022/04/24 02:26:29;;;;;;;16.40;8.90;;;;;;;;;;5110359;27;20075;-65
2022/04/24 02:28:55;;;;;;;14.18;8.60;;;;;;;;;;5110021;27;20083;-65
2022/04/24 02:31:22;;;;;;;18.83;8.45;;;;;;;;;;5109169;27;20569;-65
2022/04/24 02:33:48;;;;;;;13.68;8.63;;;;;;;;;;5109869;27;20055;-65
2022/04/24 02:36:15;;;;;;;20.23;8.70;;;;;;;;;;5110727;27;20090;-65
2022/04/24 02:38:41;;;;;;;15.73;7.97;;;;;;;;;;5110057;27;20091;-65
2022/04/24 02:41:08;;;;;;;15.30;8.13;;;;;;;;;;5110009;27;20048;-65
2022/04/24 02:43:34;;;;;;;11.27;7.22;;;;;;;;;;5110020;27;20137;-65
2022/04/24 02:46:01;;;;;;;13.27;7.57;;;;;;;;;;5110283;28;20135;-65
2022/04/24 02:48:27;;;;;;;16.08;7.95;;;;;;;;;;5109664;27;20720;-66
2022/04/24 02:50:54;;;;;;;16.60;8.07;;;;;;;;;;5109483;27;20568;-65
2022/04/24 02:53:20;;;;;;;14.57;8.40;;;;;;;;;;5110029;27;20913;-65
2022/04/24 02:55:47;;;;;;;12.35;7.53;;;;;;;;;;5109023;28;20106;-65
2022/04/24 02:58:13;;;;;;;12.00;7.85;;;;;;;;;;5109506;27;20272;-65
2022/04/24 03:00:42;;;;;;;13.18;8.10;;;;;;;;;;5109562;27;21564;-65
2022/04/24 03:03:09;;;;;;;11.85;7.38;;;;;;;;;;5109181;27;20071;-65
2022/04/24 03:05:35;;;;;;;12.65;7.97;;;;;;;;;;5109804;27;20567;-65
2022/04/24 03:08:02;;;;;;;13.02;8.13;;;;;;;;;;5109864;27;20079;-65
2022/04/24 03:10:29;;;;;;;13.38;8.32;;;;;;;;;;5109406;27;20044;-65
2022/04/24 03:12:56;;;;;;;13.27;7.63;;;;;;;;;;5109283;27;20056;-65
2022/04/24 03:15:22;;;;;;;10.80;7.03;;;;;;;;;;5109192;27;20171;-65
2022/04/24 03:17:49;;;;;;;13.60;7.28;;;;;;;;;;5109044;27;20147;-65
2022/04/24 03:20:16;;;;;;;11.85;7.40;;;;;;;;;;5108503;27;20622;-65
2022/04/24 03:22:42;;;;;;;14.23;7.30;;;;;;;;;;5109427;27;20102;-65
2022/04/24 03:25:09;;;;;;;12.75;7.45;;;;;;;;;;5109541;27;20067;-65
2022/04/24 03:27:36;;;;;;;10.48;6.22;;;;;;;;;;5109615;27;20052;-65
2022/04/24 03:30:04;;;;;;;10.73;6.78;;;;;;;;;;5109132;27;20145;-65
2022/04/24 03:32:31;;;;;;;11.80;6.70;;;;;;;;;;5109324;27;20309;-65
2022/04/24 03:34:58;;;;;;;16.27;7.55;;;;;;;;;;5108601;27;20517;-65
2022/04/24 03:37:24;;;;;;;12.20;7.45;;;;;;;;;;5109098;27;20091;-65
2022/04/24 03:39:50;;;;;;;12.45;6.53;;;;;;;;;;5108323;27;20147;-65
2022/04/24 03:42:17;;;;;;;13.25;6.80;;;;;;;;;;5109758;27;20060;-65
2022/04/24 03:44:43;;;;;;;10.85;7.03;;;;;;;;;;5107986;27;20536;-65
2022/04/24 03:47:09;;;;;;;11.20;6.75;;;;;;;;;;5108797;27;20052;-65
2022/04/24 03:49:36;;;;;;;12.30;7.07;;;;;;;;;;5108555;27;20506;-65
2022/04/24 03:52:02;;;;;;;10.85;6.78;;;;;;;;;;5108893;27;20093;-65
2022/04/24 03:54:29;;;;;;;10.95;6.88;;;;;;;;;;5108410;27;20079;-65
2022/04/24 03:56:55;;;;;;;9.07;6.18;;;;;;;;;;5108946;27;20557;-65
2022/04/24 03:59:22;;;;;;;12.23;6.20;;;;;;;;;;5108707;27;20125;-65
2022/04/24 04:01:48;;;;;;;11.73;6.70;;;;;;;;;;5108177;27;20088;-65
2022/04/24 04:04:15;;;;;;;13.52;6.70;;;;;;;;;;5109253;27;20056;-65
2022/04/24 04:06:42;;;;;;;12.70;6.70;;;;;;;;;;5108445;27;20048;-65
2022/04/24 04:09:08;;;;;;;13.63;6.65;;;;;;;;;;5107631;27;20175;-65
2022/04/24 04:11:34;;;;;;;13.30;6.18;;;;;;;;;;5108828;27;20611;-65
2022/04/24 04:14:01;;;;;;;10.50;6.65;;;;;;;;;;5108915;27;20117;-65
2022/04/24 04:16:27;;;;;;;12.05;6.88;;;;;;;;;;5107545;27;20139;-65
2022/04/24 04:18:54;;;;;;;10.23;6.28;;;;;;;;;;5107420;27;20105;-65
2022/04/24 04:21:20;;;;;;;10.35;6.57;;;;;;;;;;5108500;27;20117;-65
2022/04/24 04:23:47;;;;;;;12.20;6.20;;;;;;;;;;5108211;27;20492;-65
2022/04/24 04:26:17;;;;;;;11.77;6.60;;;;;;;;;;5108713;27;20534;-65
2022/04/24 04:28:46;;;;;;;9.77;6.13;;;;;;;;;;5108690;27;20701;-65
2022/04/24 04:31:13;;;;;;;12.00;6.15;;;;;;;;;;5108537;27;20076;-65
2022/04/24 04:33:40;;;;;;;10.57;6.65;;;;;;;;;;5107715;27;20464;-65
2022/04/24 04:36:06;;;;;;;10.25;6.07;;;;;;;;;;5108409;27;20555;-65
2022/04/24 04:38:33;;;;;;;9.50;6.05;;;;;;;;;;5107732;27;20103;-65
2022/04/24 04:40:59;;;;;;;10.35;5.43;;;;;;;;;;5107196;27;20163;-65
2022/04/24 04:43:26;;;;;;;11.23;5.80;;;;;;;;;;5108909;27;20122;-64
2022/04/24 04:45:52;;;;;;;9.63;6.13;;;;;;;;;;5107779;27;20141;-65
2022/04/24 04:48:19;;;;;;;13.35;6.38;;;;;;;;;;5106733;27;20178;-65
2022/04/24 04:50:45;;;;;;;9.95;5.72;;;;;;;;;;5108114;27;20127;-65
2022/04/24 04:53:12;;;;;;;11.48;5.28;;;;;;;;;;5107659;27;20083;-65
2022/04/24 04:55:38;;;;;;;10.15;4.88;;;;;;;;;;5108278;27;20146;-65
2022/04/24 04:58:08;;;;;;;10.85;5.80;;;;;;;;;;5107507;27;20097;-65
2022/04/24 05:00:35;;;;;;;10.35;6.03;;;;;;;;;;5107901;27;20113;-65
2022/04/24 05:03:01;;;;;;;10.85;6.03;;;;;;;;;;5107320;27;20497;-65
2022/04/24 05:05:28;;;;;;;13.05;5.50;;;;;;;;;;5108277;27;20080;-65
2022/04/24 05:07:54;;;;;;;13.80;5.82;;;;;;;;;;5107564;27;20106;-65
2022/04/24 05:10:20;;;;;;;9.52;4.90;;;;;;;;;;5107850;27;20079;-65
2022/04/24 05:12:47;;;;;;;11.95;5.95;;;;;;;;;;5107215;27;20216;-65
2022/04/24 05:15:13;;;;;;;11.38;5.60;;;;;;;;;;5107456;27;20091;-64
2022/04/24 05:17:41;;;;;;;11.55;6.07;;;;;;;;;;5108093;27;20144;-65
2022/04/24 05:20:09;;;;;;;10.88;5.65;;;;;;;;;;5107081;27;20092;-65
2022/04/24 05:22:35;;;;;;;10.88;5.40;;;;;;;;;;5106996;27;20056;-65
2022/04/24 05:25:01;;;;;;;9.60;5.68;;;;;;;;;;5107438;27;20079;-65
2022/04/24 05:27:28;;;;;;;9.45;5.32;;;;;;;;;;5108064;27;20160;-65
2022/04/24 05:29:55;;;;;;;9.98;5.43;;;;;;;;;;5107491;27;20048;-65
2022/04/24 05:32:21;;;;;;;9.05;5.10;;;;;;;;;;5107140;27;20509;-65
2022/04/24 05:34:48;;;;;;;11.52;5.65;;;;;;;;;;5107190;27;20504;-65
2022/04/24 05:37:14;;;;;;;10.20;5.57;;;;;;;;;;5107508;27;20051;-65
2022/04/24 05:39:40;;;;;;;9.98;5.93;;;;;;;;;;5107571;27;20149;-65
2022/04/24 05:42:07;;;;;;;9.60;5.50;;;;;;;;;;5107217;27;20144;-64
2022/04/24 05:44:33;;;;;;;9.38;5.25;;;;;;;;;;5107018;27;20149;-65
2022/04/24 05:46:59;;;;;;;10.35;5.50;;;;;;;;;;5105963;27;20554;-65
2022/04/24 05:49:26;;;;;;;10.13;5.78;;;;;;;;;;5107220;27;20125;-65
2022/04/24 05:51:52;;;;;;;10.23;5.07;;;;;;;;;;5108813;27;20076;-64
2022/04/24 05:54:21;;;;;;;9.57;5.18;;;;;;;;;;5111412;27;20060;-65
2022/04/24 05:56:47;;;;;;;9.23;5.15;;;;;;;;;;5110018;27;20576;-65
2022/04/24 05:59:13;;;;;;;9.05;5.18;;;;;;;;;;5110105;27;20430;-64
2022/04/24 06:01:40;;;;;;;11.82;5.53;;;;;;;;;;5111694;27;20148;-64
2022/04/24 06:04:06;;;;;;;9.90;5.22;;;;;;;;;;5110731;27;20135;-64
2022/04/24 06:06:32;;;;;;;9.52;5.40;;;;;;;;;;5110460;27;20052;-65
2022/04/24 06:08:59;;;;;;;9.13;5.28;;;;;;;;;;5109903;27;20125;-65
2022/04/24 06:11:25;;;;;;;9.75;5.15;;;;;;;;;;5109844;27;20056;-65
2022/04/24 06:13:52;;;;;;;15.70;5.40;;;;;;;;;;5110803;27;20083;-65
2022/04/24 06:16:19;;;;;;;9.65;5.15;;;;;;;;;;5111199;27;20044;-64
2022/04/24 06:18:45;;;;;;;9.80;4.72;;;;;;;;;;5109681;27;20529;-65
2022/04/24 06:21:12;;;;;;;7.82;4.95;;;;;;;;;;5110189;27;20095;-64
2022/04/24 06:23:38;;;;;;;8.98;5.03;;;;;;;;;;5111396;27;20082;-64
2022/04/24 06:26:04;;;;;;;8.13;4.97;;;;;;;;;;5110071;27;20951;-65
2022/04/24 06:28:31;;;;;;;8.82;4.78;;;;;;;;;;5109695;27;20080;-64
2022/04/24 06:30:57;;;;;;;10.18;5.25;;;;;;;;;;5110012;27;20203;-64
2022/04/24 06:33:24;;;;;;;9.80;4.35;;;;;;;;;;5110875;27;20068;-64
2022/04/24 06:35:50;;;;;;;8.00;4.95;;;;;;;;;;5109311;27;20052;-65
2022/04/24 06:38:21;;;;;;;9.85;4.95;;;;;;;;;;5109566;27;20532;-65
2022/04/24 06:40:47;;;;;;;9.15;5.05;;;;;;;;;;5109467;27;20537;-65
2022/04/24 06:43:14;;;;;;;7.80;4.93;;;;;;;;;;5110184;27;20118;-65
2022/04/24 06:45:41;;;;;;;9.48;5.10;;;;;;;;;;5109751;27;20083;-64
2022/04/24 06:48:12;;;;;;;11.68;5.20;;;;;;;;;;5109469;27;20495;-65
2022/04/24 06:50:39;;;;;;;9.82;4.35;;;;;;;;;;5110191;27;20083;-65
2022/04/24 06:53:07;;;;;;;10.93;4.75;;;;;;;;;;5110324;27;20514;-64
2022/04/24 06:55:36;;;;;;;9.93;5.13;;;;;;;;;;5109656;27;20190;-65
2022/04/24 06:58:03;;;;;;;7.88;4.80;;;;;;;;;;5109414;27;20139;-64
2022/04/24 07:00:30;;;;;;;9.18;5.00;;;;;;;;;;5108378;27;20140;-64
2022/04/24 07:03:26;;;;;;;10.40;4.65;;;;;;;;;;5108960;27;20052;-65
2022/04/24 07:06:00;;;;;;;7.20;4.55;;;;;;;;;;5110136;27;20062;-64
2022/04/24 07:08:29;;;;;;;9.90;5.03;;;;;;;;;;5110127;27;20114;-65
2022/04/24 07:10:55;;;;;;;13.15;5.20;;;;;;;;;;5109863;27;20047;-65
2022/04/24 07:13:22;;;;;;;9.90;4.97;;;;;;;;;;5109339;27;20083;-64
2022/04/24 07:15:48;;;;;;;9.40;4.60;;;;;;;;;;5109171;27;20102;-65
2022/04/24 07:18:15;;;;;;;9.15;5.28;;;;;;;;;;5109818;27;20088;-65
2022/04/24 07:20:41;;;;;;;9.63;5.70;;;;;;;;;;5109030;27;20056;-65
2022/04/24 07:23:07;;;;;;;9.15;5.15;;;;;;;;;;5108941;27;20098;-65
2022/04/24 07:25:35;;;;;;;9.27;5.10;;;;;;;;;;5108770;27;20088;-65
2022/04/24 07:28:01;;;;;;;9.30;4.78;;;;;;;;;;5109714;27;20079;-64
2022/04/24 07:30:27;;;;;;;9.20;4.95;;;;;;;;;;5109175;27;20139;-65
2022/04/24 07:32:55;;;;;;;8.52;5.25;;;;;;;;;;5109570;27;20172;-64
2022/04/24 07:35:22;;;;;;;8.90;5.03;;;;;;;;;;5108973;27;20094;-65
2022/04/24 07:37:49;;;;;;;9.60;5.40;;;;;;;;;;5108878;27;20142;-65
2022/04/24 07:40:16;;;;;;;9.90;4.95;;;;;;;;;;5109190;27;20171;-65
2022/04/24 07:42:45;;;;;;;9.38;4.95;;;;;;;;;;5109336;27;20083;-65
2022/04/24 07:45:19;;;;;;;9.20;5.30;;;;;;;;;;5108648;27;20498;-65
2022/04/24 07:47:46;;;;;;;8.80;5.00;;;;;;;;;;5109165;27;20080;-65
2022/04/24 07:50:13;;;;;;;8.80;5.00;;;;;;;;;;5108632;27;20075;-65
2022/04/24 07:52:41;;;;;;;;;;;;;;;;;;5109109;27;20052;-65
2022/04/24 07:55:09;;;;;;;7.50;4.50;;;;;;;;;;5108462;28;44842;-65
2022/04/24 07:57:35;;;;;;;;;;;;;;;;;;5109157;27;20048;-65
2022/04/24 08:00:02;;;;;;;8.13;4.97;;;;;;;;;;5107375;28;44657;-65
2022/04/24 08:02:29;;;;;;;7.70;5.05;;;;;;;;;;5108880;27;20654;-65
2022/04/24 08:04:55;;;;;;;13.32;5.30;;;;;;;;;;5108830;27;20167;-65
2022/04/24 08:07:22;;;;;;;11.30;5.05;;;;;;;;;;5108439;27;20533;-65
2022/04/24 08:09:49;;;;;;;7.75;4.78;;;;;;;;;;5108248;27;20559;-65
2022/04/24 08:12:16;;;;;;;8.40;4.15;;;;;;;;;;5108630;27;20614;-65
2022/04/24 08:14:42;;;;;;;9.45;4.72;;;;;;;;;;5106960;27;20091;-65
2022/04/24 08:17:08;;;;;;;11.30;5.85;;;;;;;;;;5108433;27;20142;-65
2022/04/24 08:19:35;;;;;;;11.23;5.53;;;;;;;;;;5108492;27;20114;-65
2022/04/24 08:22:01;;;;;;;9.93;5.00;;;;;;;;;;5107998;27;21013;-65
2022/04/24 08:24:28;;;;;;;8.25;4.75;;;;;;;;;;5108065;28;20114;-65
2022/04/24 08:26:54;;;;;;;9.52;5.53;;;;;;;;;;5107866;27;20059;-64
2022/04/24 08:29:20;;;;;;;8.60;5.05;;;;;;;;;;5108426;27;20502;-65
2022/04/24 08:31:47;;;;;;;9.18;5.03;;;;;;;;;;5107949;27;20052;-65
2022/04/24 08:34:13;;;;;;;14.25;5.00;;;;;;;;;;5108798;27;20560;-65
2022/04/24 08:36:39;;;;;;;10.15;5.18;;;;;;;;;;5108257;27;20071;-65
2022/04/24 08:39:06;;;;;;;13.70;5.70;;;;;;;;;;5107427;27;20079;-65
2022/04/24 08:41:35;;;;;;;8.23;4.72;;;;;;;;;;5108468;27;20079;-65
2022/04/24 08:44:03;;;;;;;8.40;5.13;;;;;;;;;;5108021;27;20597;-65
2022/04/24 08:46:30;;;;;;;8.88;5.43;;;;;;;;;;5108385;28;20084;-65
2022/04/24 08:48:57;;;;;;;9.40;4.90;;;;;;;;;;5107491;27;20518;-65
2022/04/24 08:51:23;;;;;;;8.30;5.00;;;;;;;;;;5107855;27;20090;-65
2022/04/24 08:53:50;;;;;;;9.07;4.93;;;;;;;;;;5108339;27;20090;-65
2022/04/24 08:56:16;;;;;;;7.28;4.38;;;;;;;;;;5107717;27;20886;-65
2022/04/24 08:58:43;;;;;;;9.52;5.18;;;;;;;;;;5107659;27;20056;-65
2022/04/24 09:01:09;;;;;;;12.23;5.35;;;;;;;;;;5107675;27;20106;-65
2022/04/24 09:03:35;;;;;;;8.05;4.88;;;;;;;;;;5107110;27;20165;-65
2022/04/24 09:06:02;;;;;;;8.50;5.10;;;;;;;;;;5106724;27;20056;-65
2022/04/24 09:08:30;;;;;;;10.52;4.95;;;;;;;;;;5107207;28;20472;-65
2022/04/24 09:11:23;;;;;;;14.25;5.10;;;;;;;;;;5107797;27;20055;-65
2022/04/24 09:16:35;;;;;;;9.10;4.90;;;;;;;;;;5108120;27;20084;-65
2022/04/24 09:19:03;;;;;;;7.75;4.88;;;;;;;;;;5107395;27;20064;-65
2022/04/24 09:21:29;;;;;;;19.30;5.47;;;;;;;;;;5106918;27;20135;-65
2022/04/24 09:24:00;;;;;;;8.48;5.00;;;;;;;;;;5107306;27;20076;-65
2022/04/24 09:26:26;;;;;;;9.57;5.05;;;;;;;;;;5108255;27;20573;-65
2022/04/24 09:29:12;;;;;;;8.85;4.80;;;;;;;;;;5110097;28;20052;-65
2022/04/24 09:31:43;;;;;;;10.98;5.20;;;;;;;;;;5110699;27;20056;-65
2022/04/24 09:34:09;;;;;;;9.00;5.47;;;;;;;;;;5110725;27;20534;-65
2022/04/24 09:36:36;;;;;;;11.43;5.40;;;;;;;;;;5111215;27;20066;-65
2022/04/24 09:39:02;;;;;;;13.90;5.45;;;;;;;;;;5110791;27;20584;-65
2022/04/24 09:41:28;;;;;;;9.23;5.38;;;;;;;;;;5111307;27;20139;-65
2022/04/24 09:43:54;;;;;;;10.30;5.13;;;;;;;;;;5111010;27;20565;-65
2022/04/24 09:46:28;;;;;;;10.23;5.70;;;;;;;;;;5110677;28;20080;-65
2022/04/24 09:48:58;;;;;;;10.35;4.80;;;;;;;;;;5110822;27;20133;-65
2022/04/24 09:51:24;;;;;;;7.78;4.80;;;;;;;;;;5110382;27;20056;-65
2022/04/24 09:53:52;;;;;;;7.78;4.60;;;;;;;;;;5109625;27;20662;-65
2022/04/24 09:56:19;;;;;;;8.20;5.13;;;;;;;;;;5110641;27;20482;-65
2022/04/24 09:58:46;;;;;;;7.07;3.83;;;;;;;;;;5111186;27;20076;-65
2022/04/24 10:01:13;;;;;;;8.68;4.90;;;;;;;;;;5110893;27;20856;-65
2022/04/24 10:03:39;;;;;;;8.90;4.63;;;;;;;;;;5110374;27;20129;-65
2022/04/24 10:06:07;;;;;;;7.80;4.70;;;;;;;;;;5111008;27;20582;-65
2022/04/24 10:08:34;;;;;;;10.82;5.10;;;;;;;;;;5110578;27;20052;-65
2022/04/24 10:11:04;;;;;;;8.98;4.93;;;;;;;;;;5110892;27;20110;-65
2022/04/24 10:13:31;;;;;;;12.48;5.93;;;;;;;;;;5110666;27;20139;-65
2022/04/24 10:16:22;;;;;;;8.00;4.78;;;;;;;;;;5110442;27;20138;-65
2022/04/24 10:18:56;;;;;;;10.50;4.97;;;;;;;;;;5108800;27;20060;-65
2022/04/24 10:21:35;;;;;;;11.15;4.93;;;;;;;;;;5110047;27;20075;-65
2022/04/24 10:24:07;;;;;;;17.90;5.65;;;;;;;;;;5110703;27;20055;-65
2022/04/24 10:26:34;;;;;;;8.27;5.38;;;;;;;;;;5109679;27;20662;-65
2022/04/24 10:29:09;;;;;;;10.50;5.47;;;;;;;;;;5110261;27;20110;-65
2022/04/24 10:31:46;;;;;;;12.73;5.97;;;;;;;;;;5109969;27;20087;-65
2022/04/24 10:34:13;;;;;;;9.30;5.22;;;;;;;;;;5109818;27;20056;-65
2022/04/24 10:36:59;;;;;;;9.90;5.20;;;;;;;;;;5110065;27;20086;-65
2022/04/24 10:39:26;;;;;;;8.73;5.22;;;;;;;;;;5108872;27;20543;-65
2022/04/24 10:41:59;;;;;;;9.75;5.22;;;;;;;;;;5109789;27;20058;-65
2022/04/24 10:44:27;;;;;;;11.18;5.32;;;;;;;;;;5109345;27;20143;-65
2022/04/24 10:46:57;;;;;;;8.73;5.18;;;;;;;;;;5109994;27;20088;-65
2022/04/24 10:49:24;;;;;;;7.95;4.97;;;;;;;;;;5109523;27;20105;-65
2022/04/24 10:52:00;;;;;;;8.82;5.45;;;;;;;;;;5109726;27;20052;-65
2022/04/24 10:54:31;;;;;;;8.15;5.22;;;;;;;;;;5110226;27;20109;-65
2022/04/24 10:56:59;;;;;;;7.65;4.80;;;;;;;;;;5109046;27;20084;-65
2022/04/24 10:59:26;;;;;;;8.97;4.60;;;;;;;;;;5109884;27;20510;-65
2022/04/24 11:01:54;;;;;;;9.10;4.60;;;;;;;;;;5109889;27;20800;-65
2022/04/24 11:04:22;;;;;;;8.50;5.18;;;;;;;;;;5110200;27;20567;-65
2022/04/24 11:06:51;;;;;;;7.97;4.68;;;;;;;;;;5109535;27;20581;-65
2022/04/24 11:09:18;;;;;;;9.20;4.72;;;;;;;;;;5108605;27;20480;-65
2022/04/24 11:11:45;;;;;;;8.27;4.82;;;;;;;;;;5108835;27;20072;-65
2022/04/24 11:14:11;;;;;;;9.93;5.55;;;;;;;;;;5109361;27;20083;-65
2022/04/24 11:16:37;;;;;;;7.85;5.05;;;;;;;;;;5109108;27;20071;-65
2022/04/24 11:19:05;;;;;;;11.00;5.30;;;;;;;;;;5108668;27;20063;-65
2022/04/24 11:21:39;;;;;;;10.05;5.15;;;;;;;;;;5109075;27;20114;-65
2022/04/24 11:24:06;;;;;;;9.82;4.35;;;;;;;;;;5109557;27;20133;-65
2022/04/24 11:26:33;;;;;;;8.25;4.45;;;;;;;;;;5109212;27;20565;-65
2022/04/24 11:29:08;;;;;;;7.60;4.38;;;;;;;;;;5109094;27;20083;-65
2022/04/24 11:31:34;;;;;;;9.13;4.97;;;;;;;;;;5109350;27;20093;-65
2022/04/24 11:34:01;;;;;;;8.73;4.47;;;;;;;;;;5108147;27;20045;-64
2022/04/24 11:36:32;;;;;;;8.82;4.25;;;;;;;;;;5108850;27;20518;-64
2022/04/24 11:39:03;;;;;;;7.30;4.18;;;;;;;;;;5108467;27;20138;-64
2022/04/24 11:41:30;;;;;;;8.00;3.85;;;;;;;;;;5108263;27;20534;-64
2022/04/24 11:50:14;;;;;;;6.97;3.67;;;;;;;;;;5108162;27;20538;-65
2022/04/24 11:53:00;;;;;;;8.43;3.53;;;;;;;;;;5109216;27;20056;-64
2022/04/24 11:58:12;;;;;;;5.97;3.42;;;;;;;;;;5108267;27;20083;-64
2022/04/24 12:00:39;;;;;;;10.70;3.95;;;;;;;;;;5107729;27;20905;-64
2022/04/24 12:03:06;;;;;;;5.85;3.28;;;;;;;;;;5109127;27;20098;-64
2022/04/24 12:05:32;;;;;;;6.40;3.15;;;;;;;;;;5108432;27;20114;-64
2022/04/24 12:07:59;;;;;;;8.13;3.10;;;;;;;;;;5108782;27;20079;-64
2022/04/24 12:10:26;;;;;;;6.22;3.20;;;;;;;;;;5108387;27;20626;-64
2022/04/24 12:12:53;;;;;;;5.60;2.97;;;;;;;;;;5108741;27;20137;-65
2022/04/24 12:15:23;;;;;;;7.43;3.53;;;;;;;;;;5108264;27;20522;-64
2022/04/24 12:17:53;;;;;;;7.78;3.15;;;;;;;;;;5108254;28;20055;-64
2022/04/24 12:20:34;;;;;;;7.35;3.15;;;;;;;;;;5107753;27;20549;-65
2022/04/24 12:23:09;;;;;;;7.93;3.13;;;;;;;;;;5108445;27;20629;-64
2022/04/24 12:25:45;;;;;;;5.28;2.40;;;;;;;;;;5107624;27;20575;-64
2022/04/24 12:28:35;;;;;;;5.30;2.80;;;;;;;;;;5108624;27;20052;-65
2022/04/24 12:31:03;;;;;;;6.20;2.88;;;;;;;;;;5108447;27;20583;-65
2022/04/24 12:33:30;;;;;;;;;;;;;;;;;;5108903;27;20052;-64
2022/04/24 12:36:09;;;;;;;6.00;2.67;;;;;;;;;;5107060;27;45507;-65
2022/04/24 12:38:35;;;;;;;5.85;3.13;;;;;;;;;;5108381;27;20183;-65
2022/04/24 12:41:02;;;;;;;5.45;2.95;;;;;;;;;;5108451;27;20169;-65
2022/04/24 12:43:29;;;;;;;5.78;2.70;;;;;;;;;;5107784;27;20088;-64
2022/04/24 12:45:55;;;;;;;5.22;2.80;;;;;;;;;;5107931;27;20475;-65
2022/04/24 12:48:23;;;;;;;5.72;2.95;;;;;;;;;;5107658;27;20052;-65
2022/04/24 12:50:53;;;;;;;6.15;2.90;;;;;;;;;;5106423;27;20101;-64
2022/04/24 12:53:20;;;;;;;7.25;2.70;;;;;;;;;;5107877;27;20552;-65
2022/04/24 12:55:46;;;;;;;4.75;2.70;;;;;;;;;;5107385;27;20080;-65
2022/04/24 12:58:16;;;;;;;4.97;2.67;;;;;;;;;;5107879;27;20095;-65
2022/04/24 13:00:43;;;;;;;5.88;2.97;;;;;;;;;;5107371;27;20139;-65
2022/04/24 13:03:11;;;;;;;6.22;2.90;;;;;;;;;;5111361;27;20087;-65
2022/04/24 13:05:38;;;;;;;4.55;2.60;;;;;;;;;;5111708;27;20055;-64
2022/04/24 13:08:21;;;;;;;8.75;2.95;;;;;;;;;;5111447;27;20146;-65
2022/04/24 13:10:48;;;;;;;5.97;2.60;;;;;;;;;;5111118;27;20142;-64
2022/04/24 13:13:14;;;;;;;7.32;2.58;;;;;;;;;;5111387;27;20086;-64
2022/04/24 13:18:07;;;;;;;8.45;2.75;;;;;;;;;;5109983;27;20047;-65
2022/04/24 13:18:33;;;;;;;5.90;2.78;;;;;;;;;;5111053;27;20048;-65
2022/04/24 13:21:00;;;;;;;8.05;2.33;;;;;;;;;;5111085;27;20135;-65
2022/04/24 13:23:26;;;;;;;6.97;2.70;;;;;;;;;;5110791;27;20105;-65
2022/04/24 13:25:54;;;;;;;6.10;2.80;;;;;;;;;;5111171;27;20080;-65
2022/04/24 13:28:26;;;;;;;6.27;2.70;;;;;;;;;;5110807;27;20106;-65
2022/04/24 13:30:53;;;;;;;9.07;2.58;;;;;;;;;;5111314;27;20598;-65
2022/04/24 13:33:19;;;;;;;5.30;2.47;;;;;;;;;;5111563;27;20055;-65
2022/04/24 13:35:50;;;;;;;4.20;2.22;;;;;;;;;;5111504;27;20087;-65
2022/04/24 13:38:19;;;;;;;8.10;3.00;;;;;;;;;;5111939;27;20060;-65
2022/04/24 13:40:46;;;;;;;5.47;2.65;;;;;;;;;;5110276;27;20048;-65
2022/04/24 13:43:12;;;;;;;6.18;2.55;;;;;;;;;;5111256;27;20138;-65
2022/04/24 13:45:39;;;;;;;5.82;2.67;;;;;;;;;;5111147;27;20084;-65
2022/04/24 13:48:24;;;;;;;10.50;2.60;;;;;;;;;;5110432;27;20056;-65
2022/04/24 13:50:54;;;;;;;4.38;2.40;;;;;;;;;;5110175;27;20064;-65
2022/04/24 13:53:24;;;;;;;4.85;2.38;;;;;;;;;;5111621;27;20048;-65
2022/04/24 13:55:51;;;;;;;5.47;2.55;;;;;;;;;;5110843;27;20044;-65
2022/04/24 13:58:17;;;;;;;4.68;2.45;;;;;;;;;;5110662;27;20083;-66
2022/04/24 14:00:44;;;;;;;4.80;2.28;;;;;;;;;;5109841;27;20076;-65
2022/04/24 14:03:12;;;;;;;3.97;2.07;;;;;;;;;;5110643;28;20058;-66
2022/04/24 14:05:40;;;;;;;5.22;1.90;;;;;;;;;;5109899;27;20298;-66
2022/04/24 14:08:06;;;;;;;6.85;2.20;;;;;;;;;;5110980;27;20078;-65
2022/04/24 14:10:33;;;;;;;5.75;2.40;;;;;;;;;;5110804;27;20091;-65
2022/04/24 14:12:59;;;;;;;4.43;2.10;;;;;;;;;;5110304;27;20947;-66
2022/04/24 14:15:28;;;;;;;5.43;2.28;;;;;;;;;;5110820;28;20080;-66
2022/04/24 14:17:55;;;;;;;5.45;2.30;;;;;;;;;;5110706;27;20576;-65
2022/04/24 14:20:24;;;;;;;7.10;2.50;;;;;;;;;;5110265;27;20056;-65
2022/04/24 14:23:11;;;;;;;6.43;2.22;;;;;;;;;;5110904;27;20058;-65
2022/04/24 14:25:37;;;;;;;5.40;2.10;;;;;;;;;;5110641;27;20578;-66
2022/04/24 14:28:03;;;;;;;4.93;2.00;;;;;;;;;;5110134;27;20506;-66
2022/04/24 14:30:31;;;;;;;6.25;2.08;;;;;;;;;;5109328;27;20643;-66
2022/04/24 14:32:58;;;;;;;4.70;2.33;;;;;;;;;;5109575;27;20062;-65
2022/04/24 14:35:26;;;;;;;4.47;2.10;;;;;;;;;;5109942;27;20080;-66
2022/04/24 14:37:52;;;;;;;6.35;1.70;;;;;;;;;;5109996;27;20426;-66
2022/04/24 14:40:19;;;;;;;5.20;2.00;;;;;;;;;;5110540;27;20060;-65
2022/04/24 14:42:46;;;;;;;5.13;2.20;;;;;;;;;;5110319;27;20091;-64
2022/04/24 14:45:12;;;;;;;5.47;2.00;;;;;;;;;;5110182;27;20140;-65
2022/04/24 14:55:54;;;;;;;5.93;1.77;;;;;;;;;;5108481;27;20044;-64
2022/04/24 14:58:22;;;;;;;3.90;2.00;;;;;;;;;;5110267;27;20076;-64
2022/04/24 15:00:49;;;;;;;4.50;1.70;;;;;;;;;;5109783;27;20093;-65
2022/04/24 15:03:18;;;;;;;4.90;2.05;;;;;;;;;;5109519;27;20048;-65